This is the latest recevied weather packets stored in our database for station/object KB1PVH-13. If no packets are shown the sender has not sent any weather packets the latest 10 day(s).
| Time | Temp. | Humidity | Pressure | Rain* | Wind** | Luminosity | Snow |
|---|---|---|---|---|---|---|---|
| 1777608017 | 8.33° C | 93% | 923.2 hPa | 0 mm | - | - | - |
| 1777607438 | 8.33° C | 93% | 923.3 hPa | 0 mm | - | - | - |
| 1777606218 | 8.89° C | 92% | 923.3 hPa | 0 mm | - | - | - |
| 1777603817 | 10° C | 93% | 923.2 hPa | 0 mm | - | - | - |
| 1777603217 | 10° C | 93% | 923.2 hPa | 0 mm | - | - | - |
| 1777599057 | 10.56° C | 94% | 923.3 hPa | 0 mm | - | - | - |
| 1777597818 | 11.11° C | 94% | 923.4 hPa | 0 mm | - | - | - |
| 1777597217 | 11.11° C | 94% | 923.1 hPa | 0 mm | - | - | - |
| 1777589437 | 12.22° C | 87% | 922.4 hPa | 0 mm | - | - | - |
| 1777585817 | 12.22° C | 85% | 921.8 hPa | 0 mm | - | - | - |
| 1777584617 | 12.78° C | 84% | 921.6 hPa | 0 mm | - | - | - |
| 1777582217 | 12.78° C | 82% | 921.7 hPa | 0 mm | - | - | - |
| 1777581037 | 12.78° C | 84% | 921.9 hPa | 0 mm | - | - | - |
| 1777579816 | 12.22° C | 87% | 921.4 hPa | 0 mm | - | - | - |
| 1777576818 | 11.67° C | 87% | 921.9 hPa | 0 mm | - | - | - |
| 1777576218 | 12.22° C | 85% | 921.9 hPa | 0 mm | - | - | - |
| 1777575018 | 12.22° C | 87% | 922 hPa | 0 mm | - | - | - |
| 1777574416 | 12.22° C | 88% | 921.9 hPa | 0 mm | - | - | - |
| 1777572617 | 12.22° C | 84% | 922 hPa | 0 mm | - | - | - |
| 1777572016 | 12.22° C | 86% | 922.1 hPa | 0 mm | - | - | - |
| 1777560016 | 8.89° C | 93% | 923.4 hPa | 0.51 mm | - | - | - |
| 1777554657 | 8.33° C | 94% | 924.1 hPa | 1.02 mm | - | - | - |
| 1777552817 | 8.33° C | 94% | 924.1 hPa | 0.51 mm | - | - | - |
| 1777552217 | 8.33° C | 94% | 924.1 hPa | 0.51 mm | - | - | - |
| 1777551016 | 8.33° C | 93% | 924.2 hPa | 0 mm | - | - | - |
* Rain latest hour (hover to see other rain measurements)
** Current wind speed in m/s (hover to see current wind gust speed)